Time;durP1;ratioP1;P1;durP2;ratioP2;P2;SDS_P1;SDS_P2;PMS_P1;PMS_P2;Temp;Humidity;BMP_temperature;BMP_pressure;BME280_temperature;BME280_humidity;BME280_pressure;Samples;Min_cycle;Max_cycle;Signal;HPM_P1;HPM_P2
2022/06/25 00:01:14;;;;;;;29.60;25.90;;;19.70;99.90;;;;;;5058726;28;20177;-94
2022/06/25 00:03:41;;;;;;;27.53;24.53;;;19.80;99.90;;;;;;5053275;28;20791;-87
2022/06/25 00:06:07;;;;;;;29.87;26.77;;;19.60;99.90;;;;;;5058291;28;20438;-87
2022/06/25 00:08:37;;;;;;;28.30;25.50;;;19.60;99.90;;;;;;5057703;28;20416;-89
2022/06/25 00:11:04;;;;;;;30.10;26.90;;;19.50;99.90;;;;;;5057780;28;20482;-87
2022/06/25 00:13:29;;;;;;;35.07;31.37;;;19.50;99.90;;;;;;5056194;28;20416;-88
2022/06/25 00:15:55;;;;;;;35.50;31.50;;;19.60;99.90;;;;;;5057720;28;20542;-87
2022/06/25 00:18:20;;;;;;;34.27;30.77;;;19.70;99.90;;;;;;5055876;28;20199;-88
2022/06/25 00:20:52;;;;;;;37.70;29.10;;;19.80;99.90;;;;;;5055918;28;20180;-87
2022/06/25 00:23:18;;;;;;;36.10;32.50;;;19.90;99.90;;;;;;5055827;28;20171;-88
2022/06/25 00:25:44;;;;;;;35.80;31.70;;;19.90;99.90;;;;;;5052324;28;20843;-87
2022/06/25 00:28:09;;;;;;;40.53;34.63;;;19.80;99.90;;;;;;5053747;28;20176;-88
2022/06/25 00:30:37;;;;;;;36.60;32.77;;;19.70;99.90;;;;;;5052597;28;20228;-88
2022/06/25 00:33:03;;;;;;;39.67;33.67;;;19.60;99.90;;;;;;5054918;28;20179;-87
2022/06/25 00:35:29;;;;;;;35.13;30.07;;;19.60;99.90;;;;;;5055418;28;20414;-88
2022/06/25 00:37:54;;;;;;;39.03;31.90;;;19.60;99.90;;;;;;5055808;28;20419;-87
2022/06/25 00:40:20;;;;;;;34.50;30.90;;;19.70;99.90;;;;;;5053111;28;20215;-88
2022/06/25 00:42:52;;;;;;;33.10;29.67;;;19.70;99.90;;;;;;5053071;28;20173;-87
2022/06/25 00:45:18;;;;;;;35.77;31.77;;;19.70;99.90;;;;;;5051274;28;20181;-88
2022/06/25 00:47:43;;;;;;;36.70;32.87;;;19.60;99.90;;;;;;5052673;28;20421;-87
2022/06/25 00:50:09;;;;;;;34.93;31.23;;;19.60;99.90;;;;;;5052723;28;20184;-87
2022/06/25 00:52:40;;;;;;;38.90;34.33;;;19.70;99.90;;;;;;5052671;28;20190;-89
2022/06/25 00:55:09;;;;;;;42.90;35.63;;;19.60;99.90;;;;;;5051604;28;20595;-87
2022/06/25 00:57:39;;;;;;;38.07;34.13;;;19.50;99.90;;;;;;5051462;28;20433;-88
2022/06/25 01:00:09;;;;;;;39.07;34.97;;;19.30;99.90;;;;;;5050957;28;20468;-87
2022/06/25 01:02:36;;;;;;;38.40;34.00;;;19.30;99.90;;;;;;5051546;28;20458;-88
2022/06/25 01:05:09;;;;;;;40.17;35.97;;;19.30;99.90;;;;;;5052247;28;20438;-92
2022/06/25 01:07:37;;;;;;;39.60;35.40;;;19.30;99.90;;;;;;5053171;28;20450;-94
2022/06/25 01:10:09;;;;;;;40.13;35.93;;;19.20;99.90;;;;;;5043199;23;20501;-90
2022/06/25 01:12:40;;;;;;;38.37;32.57;;;19.20;99.90;;;;;;4974546;28;20445;-88
2022/06/25 01:15:18;;;;;;;38.87;34.70;;;19.20;99.90;;;;;;4974190;28;20418;-88
2022/06/25 01:17:49;;;;;;;40.20;34.33;;;19.10;99.90;;;;;;4972853;28;20832;-88
2022/06/25 01:20:16;;;;;;;45.40;37.53;;;19.10;99.90;;;;;;4974262;28;20488;-87
2022/06/25 01:22:42;;;;;;;40.27;35.87;;;19.00;99.90;;;;;;4974253;28;20459;-88
2022/06/25 01:25:11;;;;;;;45.23;36.83;;;18.90;99.90;;;;;;4972934;28;20433;-86
2022/06/25 01:27:37;;;;;;;48.07;38.60;;;18.80;99.90;;;;;;4972551;28;20229;-86
2022/06/25 01:30:06;;;;;;;45.70;39.10;;;18.80;99.90;;;;;;4973387;28;20429;-85
2022/06/25 01:32:32;;;;;;;45.00;38.50;;;18.70;99.90;;;;;;4972549;28;20545;-85
2022/06/25 01:34:58;;;;;;;45.17;39.20;;;18.70;99.90;;;;;;4973937;28;20420;-85
2022/06/25 01:37:23;;;;;;;43.57;38.20;;;18.60;99.90;;;;;;4974173;28;20177;-86
2022/06/25 01:39:56;;;;;;;42.40;37.50;;;18.60;99.90;;;;;;4973783;28;20197;-86
2022/06/25 01:43:08;;;;;;;42.37;37.77;;;18.70;99.90;;;;;;4973843;28;20744;-87
2022/06/25 01:45:12;;;;;;;43.10;37.30;;;18.60;99.90;;;;;;4966092;28;20428;-87
2022/06/25 01:47:38;;;;;;;48.23;37.03;;;18.70;99.90;;;;;;4973746;28;20423;-88
2022/06/25 01:50:06;;;;;;;45.70;36.53;;;18.60;99.90;;;;;;4976461;28;20901;-87
2022/06/25 01:52:32;;;;;;;40.07;35.30;;;18.70;99.90;;;;;;4975922;28;20438;-89
2022/06/25 01:54:57;;;;;;;37.80;34.13;;;18.70;99.90;;;;;;4957521;28;20781;-87
2022/06/25 01:57:23;;;;;;;40.47;32.27;;;18.70;99.90;;;;;;4957477;28;20230;-87
2022/06/25 01:59:48;;;;;;;41.40;34.17;;;18.70;99.90;;;;;;4955890;28;20204;-88
2022/06/25 02:02:14;;;;;;;38.23;33.97;;;18.60;99.90;;;;;;4955707;28;20257;-88
2022/06/25 02:04:40;;;;;;;40.37;33.33;;;18.60;99.90;;;;;;4957767;28;20175;-87
2022/06/25 02:07:05;;;;;;;41.33;33.43;;;18.60;99.90;;;;;;4956563;29;20424;-87
2022/06/25 02:09:31;;;;;;;37.53;31.73;;;18.50;99.90;;;;;;4957461;28;20281;-87
2022/06/25 02:11:56;;;;;;;40.43;36.03;;;18.50;99.90;;;;;;4957630;28;20170;-87
2022/06/25 02:14:22;;;;;;;41.00;32.37;;;18.50;99.90;;;;;;4957476;28;20182;-87
2022/06/25 02:16:50;;;;;;;37.73;33.40;;;18.50;99.90;;;;;;4956282;29;20261;-86
2022/06/25 02:19:16;;;;;;;38.13;33.77;;;18.50;99.90;;;;;;4956152;28;20556;-87
2022/06/25 02:21:41;;;;;;;37.40;33.53;;;18.50;99.90;;;;;;4957430;28;20465;-86
2022/06/25 02:24:07;;;;;;;37.67;32.90;;;18.50;99.90;;;;;;4957457;28;20186;-85
2022/06/25 02:26:32;;;;;;;39.77;32.70;;;18.40;99.90;;;;;;4956190;28;20573;-86
2022/06/25 02:28:58;;;;;;;38.80;33.30;;;18.40;99.90;;;;;;4955728;28;20310;-86
2022/06/25 02:31:23;;;;;;;35.83;31.90;;;18.40;99.90;;;;;;4957240;28;20178;-86
2022/06/25 02:33:48;;;;;;;34.30;30.60;;;18.40;99.90;;;;;;4957233;28;20650;-86
2022/06/25 02:36:14;;;;;;;42.67;32.57;;;18.40;99.90;;;;;;4957231;28;20174;-85
2022/06/25 02:38:40;;;;;;;34.83;31.30;;;18.30;99.90;;;;;;4957105;28;20209;-85
2022/06/25 02:41:05;;;;;;;39.63;32.27;;;18.30;99.90;;;;;;4957036;28;20268;-85
2022/06/25 02:43:31;;;;;;;37.67;33.23;;;18.30;99.90;;;;;;4956698;28;20171;-88
2022/06/25 02:45:56;;;;;;;36.20;32.07;;;18.20;99.90;;;;;;4957019;28;20179;-85
2022/06/25 02:48:23;;;;;;;35.43;31.33;;;18.20;99.90;;;;;;4955729;28;20177;-86
2022/06/25 02:50:48;;;;;;;39.00;32.23;;;18.10;99.90;;;;;;4955674;29;20185;-85
2022/06/25 02:53:14;;;;;;;36.50;32.43;;;17.90;99.90;;;;;;4955641;28;20428;-84
2022/06/25 03:01:08;;;;;;;41.57;31.70;;;18.00;99.90;;;;;;4956432;28;20906;-86
2022/06/25 03:03:34;;;;;;;33.77;28.50;;;18.00;99.90;;;;;;4957020;28;20502;-87
2022/06/25 03:05:59;;;;;;;34.20;30.50;;;18.00;99.90;;;;;;4955626;28;20644;-88
2022/06/25 03:08:25;;;;;;;31.93;27.60;;;18.00;99.90;;;;;;4955527;28;20174;-88
2022/06/25 03:10:51;;;;;;;32.13;26.50;;;17.90;99.90;;;;;;4955416;28;20182;-88
2022/06/25 03:13:16;;;;;;;33.93;27.40;;;17.90;99.90;;;;;;4956150;28;20197;-88
2022/06/25 03:15:42;;;;;;;30.53;26.83;;;17.90;99.90;;;;;;4956470;28;20466;-88
2022/06/25 03:18:07;;;;;;;30.30;26.83;;;17.90;99.90;;;;;;4956484;28;20519;-87
2022/06/25 03:20:33;;;;;;;28.57;24.80;;;17.90;99.90;;;;;;4956433;28;20264;-88
2022/06/25 03:22:58;;;;;;;31.53;25.20;;;17.90;99.90;;;;;;4956421;28;20237;-87
2022/06/25 03:25:24;;;;;;;30.33;27.23;;;17.80;99.90;;;;;;4956309;28;20246;-87
2022/06/25 03:27:50;;;;;;;30.80;27.20;;;17.80;99.90;;;;;;4956015;28;20184;-88
2022/06/25 03:30:16;;;;;;;27.80;24.57;;;17.80;99.90;;;;;;4954983;29;20624;-88
2022/06/25 03:32:42;;;;;;;28.27;25.17;;;17.80;99.90;;;;;;4954895;29;20178;-86
2022/06/25 03:35:07;;;;;;;29.33;26.00;;;17.80;99.90;;;;;;4956072;28;20474;-86
2022/06/25 03:37:33;;;;;;;31.47;28.17;;;17.80;99.90;;;;;;4956041;28;20299;-87
2022/06/25 03:39:59;;;;;;;32.90;27.57;;;17.90;99.90;;;;;;4954685;28;20216;-86
2022/06/25 03:42:24;;;;;;;31.30;27.00;;;17.90;99.90;;;;;;4954809;28;20180;-87
2022/06/25 03:44:50;;;;;;;31.23;27.30;;;17.90;99.90;;;;;;4955561;28;20178;-87
2022/06/25 03:47:15;;;;;;;26.70;23.90;;;17.90;99.90;;;;;;4955853;28;20638;-87
2022/06/25 03:49:41;;;;;;;27.03;23.80;;;17.90;99.90;;;;;;4954553;28;20189;-86
2022/06/25 03:52:07;;;;;;;29.07;26.00;;;18.00;99.90;;;;;;4959962;28;20169;-84
2022/06/25 03:54:32;;;;;;;27.63;24.73;;;17.90;99.90;;;;;;4967195;29;20209;-85
2022/06/25 03:56:58;;;;;;;27.83;24.87;;;18.00;99.90;;;;;;4956057;28;20184;-86
2022/06/25 03:59:23;;;;;;;28.93;25.77;;;18.00;99.90;;;;;;4955841;28;20205;-86
2022/06/25 04:01:49;;;;;;;28.13;25.07;;;18.10;99.90;;;;;;4954469;28;20210;-86
2022/06/25 04:04:14;;;;;;;28.40;25.40;;;18.20;99.90;;;;;;4955633;28;20184;-86
2022/06/25 04:06:43;;;;;;;28.53;25.67;;;18.20;99.90;;;;;;4955914;28;20177;-86
2022/06/25 04:09:08;;;;;;;30.23;26.80;;;18.30;99.90;;;;;;4955441;28;20222;-86
2022/06/25 04:11:34;;;;;;;31.47;25.73;;;18.40;99.90;;;;;;4954771;28;20433;-87
2022/06/25 04:13:59;;;;;;;31.27;27.67;;;18.40;99.90;;;;;;4955008;28;20695;-86
2022/06/25 04:16:25;;;;;;;32.70;27.27;;;18.50;99.90;;;;;;4955375;28;20318;-86
2022/06/25 04:18:50;;;;;;;30.97;27.37;;;18.60;99.90;;;;;;4954059;29;20193;-86
2022/06/25 04:21:17;;;;;;;38.60;31.77;;;18.60;99.90;;;;;;4955270;28;20210;-86
2022/06/25 04:23:43;;;;;;;37.40;31.87;;;18.70;99.90;;;;;;4955341;28;20646;-87
2022/06/25 04:26:08;;;;;;;41.43;31.63;;;18.70;99.90;;;;;;4953958;28;20460;-86
2022/06/25 04:31:19;;;;;;;37.03;32.73;;;18.80;99.90;;;;;;4955286;28;20217;-86
2022/06/25 04:33:44;;;;;;;41.80;35.90;;;18.80;99.90;;;;;;4955193;28;20415;-86
2022/06/25 04:36:10;;;;;;;33.53;29.90;;;18.80;99.90;;;;;;4953975;28;20188;-87
2022/06/25 04:38:35;;;;;;;39.50;33.10;;;18.90;99.90;;;;;;4953902;28;20169;-86
2022/06/25 04:41:01;;;;;;;37.10;32.83;;;18.90;99.90;;;;;;4953772;28;20683;-86
2022/06/25 04:43:26;;;;;;;35.30;31.50;;;19.00;99.90;;;;;;4953479;28;20270;-88
2022/06/25 04:45:52;;;;;;;36.67;29.80;;;19.00;99.90;;;;;;4954995;28;20202;-87
2022/06/25 04:48:17;;;;;;;37.20;33.37;;;19.10;99.90;;;;;;4955053;28;20179;-86
2022/06/25 04:50:47;;;;;;;36.20;30.70;;;19.20;99.90;;;;;;4954910;28;20632;-86
2022/06/25 04:53:13;;;;;;;37.60;31.90;;;19.20;99.90;;;;;;4954969;28;20259;-87
2022/06/25 04:55:38;;;;;;;33.87;30.10;;;19.30;99.90;;;;;;4954931;28;20524;-87
2022/06/25 04:58:04;;;;;;;35.30;31.60;;;19.30;99.90;;;;;;4954683;28;20410;-87
2022/06/25 05:00:29;;;;;;;34.80;31.10;;;19.30;99.90;;;;;;4954890;28;20749;-87
2022/06/25 05:02:55;;;;;;;38.13;32.27;;;19.40;99.90;;;;;;4953804;28;20693;-89
2022/06/25 05:05:20;;;;;;;37.70;32.60;;;19.40;99.90;;;;;;4953447;29;20324;-88
2022/06/25 05:07:46;;;;;;;38.57;30.80;;;19.40;99.90;;;;;;4954940;28;20163;-87
2022/06/25 05:10:11;;;;;;;38.27;30.40;;;19.40;99.90;;;;;;4953341;28;20227;-87
2022/06/25 05:15:21;;;;;;;32.07;28.47;;;19.50;99.90;;;;;;4954820;29;20177;-87
2022/06/25 05:17:47;;;;;;;34.70;30.77;;;19.50;99.90;;;;;;4953722;28;20766;-89
2022/06/25 05:20:13;;;;;;;33.50;29.97;;;19.50;99.90;;;;;;4953609;29;20471;-86
2022/06/25 05:22:38;;;;;;;32.83;29.23;;;19.50;99.90;;;;;;4953649;28;20692;-90
2022/06/25 05:25:04;;;;;;;31.47;28.17;;;19.60;99.90;;;;;;4958806;28;20182;-89
2022/06/25 05:27:30;;;;;;;32.73;27.10;;;19.80;99.90;;;;;;4957423;28;20296;-90
2022/06/25 05:29:55;;;;;;;34.70;26.87;;;20.00;99.90;;;;;;4958874;28;20960;-90
2022/06/25 05:32:21;;;;;;;27.47;24.57;;;20.20;99.90;;;;;;4957876;28;20178;-93
2022/06/25 05:34:48;;;;;;;29.10;24.47;;;20.30;99.90;;;;;;4957948;28;20584;-91
2022/06/25 05:37:14;;;;;;;27.77;24.47;;;20.50;99.90;;;;;;4959336;28;20198;-90
2022/06/25 05:39:40;;;;;;;26.47;23.77;;;20.60;99.90;;;;;;4957875;28;20920;-90
2022/06/25 05:42:05;;;;;;;24.97;22.20;;;20.60;99.90;;;;;;4957603;28;20517;-91
2022/06/25 05:44:31;;;;;;;22.37;20.17;;;20.90;99.90;;;;;;4958951;28;20170;-91
2022/06/25 05:46:56;;;;;;;23.27;20.77;;;21.10;99.90;;;;;;4957870;28;20575;-91
2022/06/25 05:49:22;;;;;;;21.83;19.60;;;21.20;99.90;;;;;;4957841;28;20180;-91
2022/06/25 05:51:47;;;;;;;22.70;20.40;;;21.50;99.90;;;;;;4957893;28;20242;-90
2022/06/25 05:54:16;;;;;;;21.77;19.73;;;21.80;99.90;;;;;;4958024;28;20184;-91
2022/06/25 05:56:42;;;;;;;20.40;17.10;;;22.10;99.90;;;;;;4957173;28;20665;-89
2022/06/25 05:59:08;;;;;;;18.60;16.70;;;22.20;99.90;;;;;;4958077;28;20417;-89
2022/06/25 06:01:33;;;;;;;18.60;16.30;;;22.20;99.90;;;;;;4958338;28;20204;-91
2022/06/25 06:03:59;;;;;;;16.60;15.00;;;22.20;99.90;;;;;;4957333;29;20207;-91
2022/06/25 06:06:24;;;;;;;16.90;15.40;;;22.40;99.90;;;;;;4957045;28;20208;-90
2022/06/25 06:08:53;;;;;;;16.17;14.67;;;22.70;99.90;;;;;;4958085;28;20218;-91
2022/06/25 06:11:18;;;;;;;16.23;14.07;;;22.90;99.90;;;;;;4957991;28;20186;-88
2022/06/25 06:13:46;;;;;;;14.30;12.90;;;23.20;48.50;;;;;;4956303;29;20415;-89
2022/06/25 06:16:21;;;;;;;14.40;12.63;;;23.50;1.00;;;;;;4956678;29;20316;-89
2022/06/25 06:18:49;;;;;;;14.43;13.03;;;23.80;1.00;;;;;;4957981;28;20494;-90
2022/06/25 06:21:15;;;;;;;11.57;10.57;;;24.00;1.00;;;;;;4957569;28;20559;-88
2022/06/25 06:23:40;;;;;;;11.80;10.90;;;24.30;99.90;;;;;;4957589;28;20450;-88
2022/06/25 06:26:05;;;;;;;12.50;11.17;;;24.50;99.90;;;;;;4956085;28;20207;-87
2022/06/25 06:28:31;;;;;;;14.17;11.77;;;24.60;99.90;;;;;;4955928;28;20171;-88
2022/06/25 06:30:56;;;;;;;12.20;11.20;;;24.80;1.00;;;;;;4956034;28;20199;-88
2022/06/25 06:33:23;;;;;;;11.17;10.07;;;24.80;1.00;;;;;;4955933;28;20196;-88
2022/06/25 06:35:48;;;;;;;11.47;9.73;;;24.80;99.90;;;;;;4956578;28;20520;-89
2022/06/25 06:38:14;;;;;;;11.57;10.47;;;24.80;1.00;;;;;;4957605;29;20514;-90
2022/06/25 06:40:39;;;;;;;10.50;9.60;;;25.10;1.00;;;;;;4956108;28;20226;-88
2022/06/25 06:43:11;;;;;;;9.47;8.60;;;25.40;1.00;;;;;;4955531;29;20171;-88
2022/06/25 06:45:37;;;;;;;9.30;8.50;;;25.70;99.90;;;;;;4956244;29;20188;-90
2022/06/25 06:48:03;;;;;;;10.20;9.23;;;26.10;99.90;;;;;;4957387;29;20420;-89
2022/06/25 06:50:28;;;;;;;8.60;7.77;;;26.00;99.90;;;;;;4957809;29;20187;-89
2022/06/25 06:52:53;;;;;;;8.73;7.93;;;26.00;1.00;;;;;;4956271;29;20433;-88
2022/06/25 06:55:22;;;;;;;7.43;6.73;;;26.20;99.90;;;;;;4957271;28;20184;-90
2022/06/25 06:57:47;;;;;;;7.87;7.17;;;26.50;1.00;;;;;;4956698;29;20188;-93
2022/06/25 07:00:13;;;;;;;7.03;6.33;;;27.00;1.00;;;;;;4956883;29;20514;-92
2022/06/25 07:02:38;;;;;;;7.23;6.63;;;27.30;1.00;;;;;;4957875;29;20169;-93
2022/06/25 07:05:04;;;;;;;5.97;5.47;;;27.70;99.90;;;;;;4956635;29;20173;-90
2022/06/25 07:07:30;;;;;;;6.40;5.83;;;28.30;99.90;;;;;;4958419;29;20177;-93
2022/06/25 07:09:55;;;;;;;5.37;4.87;;;28.40;99.90;;;;;;4957335;28;20997;-92
2022/06/25 07:12:23;;;;;;;5.70;4.90;;;29.30;99.90;;;;;;4957354;28;20181;-93
2022/06/25 07:14:51;;;;;;;6.07;5.57;;;30.10;99.90;;;;;;4991991;28;20188;-93
2022/06/25 07:17:17;;;;;;;6.77;6.00;;;30.80;99.90;;;;;;4962437;28;20425;-93
2022/06/25 07:19:43;;;;;;;5.63;4.43;;;31.40;99.90;;;;;;4956840;29;20419;-93
2022/06/25 07:22:08;;;;;;;5.93;5.50;;;32.10;74.30;;;;;;4963830;28;20187;-93
2022/06/25 07:24:34;;;;;;;5.50;5.00;;;32.70;43.40;;;;;;4973131;28;20176;-93
2022/06/25 07:26:59;;;;;;;4.90;4.50;;;33.20;26.00;;;;;;4964758;28;20649;-93
2022/06/25 07:29:25;;;;;;;4.03;3.73;;;33.70;14.50;;;;;;4956774;29;20597;-93
2022/06/25 07:31:51;;;;;;;4.33;3.93;;;33.90;8.40;;;;;;4967087;28;20168;-93
2022/06/25 07:34:17;;;;;;;4.50;4.07;;;33.60;1.90;;;;;;4976521;28;20172;-91
2022/06/25 07:36:43;;;;;;;4.53;4.03;;;33.20;1.00;;;;;;4976243;28;20416;-91
2022/06/25 07:39:08;;;;;;;5.60;4.23;;;34.00;1.00;;;;;;4975949;28;20470;-92
2022/06/25 07:41:34;;;;;;;5.90;3.80;;;34.60;3.20;;;;;;4975920;28;20208;-91
2022/06/25 07:43:59;;;;;;;4.40;2.70;;;34.70;1.00;;;;;;4975917;28;20655;-91
2022/06/25 07:46:25;;;;;;;3.47;3.27;;;35.60;1.00;;;;;;4974110;28;20646;-94
2022/06/25 07:48:50;;;;;;;3.30;3.00;;;36.30;1.00;;;;;;4974910;28;20212;-92
2022/06/25 07:54:02;;;;;;;3.43;1.50;;;36.50;1.00;;;;;;4976593;28;20171;-93
2022/06/25 07:56:28;;;;;;;1.83;1.73;;;37.00;1.00;;;;;;4975382;28;20432;-92
2022/06/25 07:58:54;;;;;;;2.30;2.10;;;37.60;1.00;;;;;;4974945;28;20416;-92
2022/06/25 08:01:22;;;;;;;1.97;1.77;;;38.10;1.00;;;;;;4975054;28;20291;-93
2022/06/25 08:03:48;;;;;;;1.93;1.83;;;37.90;1.00;;;;;;4974990;28;20416;-92
2022/06/25 08:06:16;;;;;;;3.00;2.70;;;36.80;1.00;;;;;;4974897;28;20454;-93
2022/06/25 08:08:42;;;;;;;3.17;2.60;;;36.70;1.00;;;;;;4974897;28;20670;-90
2022/06/25 08:11:08;;;;;;;3.00;2.00;;;37.60;1.00;;;;;;4976010;28;20455;-91
2022/06/25 08:13:34;;;;;;;3.83;2.23;;;38.30;1.00;;;;;;4973329;28;20193;-92
2022/06/25 08:15:59;;;;;;;2.53;1.90;;;38.00;1.00;;;;;;4974475;28;20431;-93
2022/06/25 08:18:25;;;;;;;2.40;2.20;;;38.40;1.00;;;;;;4975129;28;20172;-93
2022/06/25 08:20:51;;;;;;;2.20;1.70;;;38.50;1.00;;;;;;4975645;28;20206;-92
2022/06/25 08:23:17;;;;;;;3.03;2.77;;;37.70;1.00;;;;;;4974680;28;20234;-93
2022/06/25 08:25:43;;;;;;;2.53;2.33;;;34.80;1.00;;;;;;4974771;28;20180;-92
2022/06/25 08:28:08;;;;;;;3.40;2.47;;;34.40;1.00;;;;;;4974332;28;21002;-91
2022/06/25 08:30:35;;;;;;;4.73;2.80;;;34.80;1.00;;;;;;4974639;28;20176;-91
2022/06/25 08:33:01;;;;;;;2.40;2.20;;;36.10;1.00;;;;;;4974700;28;20640;-92
2022/06/25 08:35:27;;;;;;;2.90;2.40;;;37.20;1.00;;;;;;4974678;28;20932;-93
2022/06/25 08:37:53;;;;;;;2.60;2.40;;;37.40;1.00;;;;;;4974675;28;20439;-92
2022/06/25 08:40:20;;;;;;;2.80;2.60;;;38.00;1.00;;;;;;4974188;28;20474;-90
2022/06/25 08:42:52;;;;;;;2.73;2.50;;;39.00;1.00;;;;;;4973526;28;20424;-89
2022/06/25 08:45:18;;;;;;;3.10;2.33;;;39.80;1.00;;;;;;4973247;28;20474;-91
2022/06/25 08:47:45;;;;;;;2.33;1.30;;;40.10;1.00;;;;;;4974513;28;20428;-91
2022/06/25 08:50:14;;;;;;;2.40;2.20;;;40.80;1.00;;;;;;4974365;28;20172;-90
2022/06/25 08:52:43;;;;;;;2.83;2.60;;;41.10;1.00;;;;;;4974198;28;20420;-91
2022/06/25 08:55:10;;;;;;;2.40;2.20;;;40.90;1.00;;;;;;4973307;28;20480;-91
2022/06/25 08:57:37;;;;;;;4.10;3.70;;;41.00;1.00;;;;;;4974297;28;20428;-92
2022/06/25 09:00:04;;;;;;;3.10;2.90;;;40.30;1.00;;;;;;4978859;28;20459;-90
2022/06/25 09:02:30;;;;;;;2.70;2.30;;;39.40;1.00;;;;;;4978546;28;20836;-91
2022/06/25 09:04:55;;;;;;;3.47;3.17;;;39.90;1.00;;;;;;4977065;28;20411;-89
2022/06/25 09:07:21;;;;;;;4.30;3.43;;;38.00;1.00;;;;;;4978617;28;20230;-90
2022/06/25 09:09:49;;;;;;;3.43;3.23;;;39.00;1.00;;;;;;4978184;28;20242;-90
2022/06/25 09:12:16;;;;;;;2.17;1.97;;;38.80;1.00;;;;;;4978236;28;20541;-90
2022/06/25 09:14:42;;;;;;;3.90;2.77;;;40.40;1.00;;;;;;4978622;28;20487;-93
2022/06/25 09:17:12;;;;;;;3.70;3.40;;;40.80;1.00;;;;;;4977440;28;20834;-91
2022/06/25 09:19:48;;;;;;;3.27;3.00;;;40.60;1.00;;;;;;4976883;28;20419;-90
2022/06/25 09:22:22;;;;;;;2.77;2.57;;;39.30;1.00;;;;;;4978307;28;20445;-91
2022/06/25 09:24:49;;;;;;;3.00;2.80;;;37.60;1.00;;;;;;4978019;28;20912;-89
2022/06/25 09:27:21;;;;;;;4.77;4.37;;;36.00;1.00;;;;;;4978189;28;20494;-89
2022/06/25 09:29:49;;;;;;;4.20;3.90;;;34.40;1.00;;;;;;4976981;28;20458;-88
2022/06/25 09:32:16;;;;;;;3.30;3.07;;;35.30;1.00;;;;;;4978116;28;20928;-88
2022/06/25 09:34:42;;;;;;;3.97;3.60;;;35.80;1.00;;;;;;4978826;28;20809;-89
2022/06/25 09:37:21;;;;;;;2.73;2.53;;;37.00;1.00;;;;;;4982476;28;20475;-85
2022/06/25 09:39:48;;;;;;;3.73;3.20;;;36.60;1.00;;;;;;4989818;28;20176;-89
2022/06/25 09:42:32;;;;;;;3.97;3.40;;;37.00;1.00;;;;;;4988214;28;20420;-86
2022/06/25 09:45:17;;;;;;;4.20;3.90;;;39.10;1.00;;;;;;5002107;28;20430;-89
2022/06/25 09:47:44;;;;;;;4.50;4.20;;;40.40;1.00;;;;;;4988013;28;20841;-90
2022/06/25 09:50:22;;;;;;;3.70;3.50;;;41.20;1.00;;;;;;4977918;28;20978;-87
2022/06/25 09:52:53;;;;;;;3.50;3.30;;;41.90;1.00;;;;;;4977630;28;20407;-88
2022/06/25 09:55:24;;;;;;;4.00;3.70;;;42.00;1.00;;;;;;4977212;28;20420;-90
2022/06/25 09:57:51;;;;;;;3.83;3.53;;;42.00;1.00;;;;;;4977069;28;20424;-89
2022/06/25 10:00:21;;;;;;;3.13;2.93;;;42.10;1.00;;;;;;4971963;28;20479;-88
2022/06/25 10:02:48;;;;;;;2.97;2.77;;;40.30;1.00;;;;;;4959320;29;20456;-88
2022/06/25 10:05:17;;;;;;;3.10;2.90;;;40.70;1.00;;;;;;4958509;28;20438;-89
2022/06/25 10:08:04;;;;;;;3.40;2.60;;;41.10;1.00;;;;;;4957263;29;20929;-88
2022/06/25 10:10:45;;;;;;;2.27;2.17;;;42.60;1.00;;;;;;4955398;28;20566;-91
2022/06/25 10:13:11;;;;;;;2.47;2.27;;;43.60;1.00;;;;;;4957586;29;20420;-90
2022/06/25 10:15:40;;;;;;;3.30;3.10;;;43.90;1.00;;;;;;4957342;29;20423;-89
2022/06/25 10:18:11;;;;;;;2.30;1.87;;;42.40;1.00;;;;;;4956975;29;20173;-90
2022/06/25 10:20:39;;;;;;;2.07;1.87;;;41.60;1.00;;;;;;4957260;29;20474;-88
2022/06/25 10:23:06;;;;;;;4.40;2.10;;;39.50;1.00;;;;;;4956669;28;20578;-90
2022/06/25 10:25:33;;;;;;;2.77;1.73;;;40.00;1.00;;;;;;4956681;29;20875;-89
2022/06/25 10:28:16;;;;;;;2.50;2.30;;;39.30;1.00;;;;;;4956820;29;20585;-89
2022/06/25 10:30:49;;;;;;;3.10;2.50;;;;;;;;;;4955651;28;20507;-89
2022/06/25 10:33:23;;;;;;;3.43;2.33;;;36.10;1.00;;;;;;4961202;28;20413;-88
2022/06/25 10:35:51;;;;;;;2.33;1.83;;;36.30;1.00;;;;;;4957371;29;20421;-89
2022/06/25 10:38:21;;;;;;;2.57;1.50;;;39.00;1.00;;;;;;4957549;29;20894;-91
2022/06/25 10:43:50;;;;;;;1.83;1.73;;;42.30;1.00;;;;;;4957490;29;20838;-90
2022/06/25 10:46:33;;;;;;;1.77;1.50;;;;;;;;;;4956753;29;20791;-91
2022/06/25 10:49:17;;;;;;;1.83;1.13;;;43.20;1.00;;;;;;4958323;28;20898;-92
2022/06/25 10:51:49;;;;;;;1.60;1.50;;;43.10;1.00;;;;;;4956481;29;20466;-91
2022/06/25 10:54:26;;;;;;;1.50;1.40;;;44.40;1.00;;;;;;4958747;28;20431;-90
2022/06/25 10:56:54;;;;;;;1.33;1.20;;;45.40;1.00;;;;;;4962558;28;20434;-92
2022/06/25 10:59:34;;;;;;;1.60;1.50;;;44.90;1.00;;;;;;4977100;28;20617;-91
2022/06/25 11:02:11;;;;;;;3.30;1.67;;;44.70;1.00;;;;;;4976621;28;20474;-90
2022/06/25 11:04:38;;;;;;;2.60;1.87;;;44.90;1.00;;;;;;4965132;28;20419;-91
2022/06/25 11:07:17;;;;;;;1.70;1.30;;;45.40;1.00;;;;;;4955858;29;20487;-90
2022/06/25 11:09:55;;;;;;;1.57;1.30;;;45.80;1.00;;;;;;4956056;29;20862;-91
2022/06/25 11:12:21;;;;;;;1.40;1.07;;;45.00;1.00;;;;;;4955644;29;20416;-90
2022/06/25 11:15:07;;;;;;;1.37;1.17;;;45.10;1.00;;;;;;4957344;28;20420;-92
2022/06/25 11:17:32;;;;;;;1.53;1.00;;;43.90;1.00;;;;;;4955969;28;20440;-90
2022/06/25 11:20:05;;;;;;;1.30;1.10;;;44.90;1.00;;;;;;4970262;28;20449;-93
2022/06/25 11:22:31;;;;;;;1.20;1.10;;;44.60;1.00;;;;;;4975229;28;20191;-91
2022/06/25 11:30:42;;;;;;;1.10;1.00;;;;;;;;;;4954971;29;20464;-91
2022/06/25 11:33:09;;;;;;;1.50;1.40;;;;;;;;;;4971924;28;20422;-92
2022/06/25 11:35:40;;;;;;;1.73;1.30;;;;;;;;;;4975541;28;20437;-89
2022/06/25 11:38:13;;;;;;;1.33;1.23;;;;;;;;;;4975320;28;20411;-91
2022/06/25 11:40:39;;;;;;;6.10;1.37;;;;;;;;;;4975688;28;20435;-92
2022/06/25 11:43:08;;;;;;;1.20;1.10;;;;;;;;;;4976034;28;20476;-93
2022/06/25 11:45:47;;;;;;;0.90;0.87;;;;;;;;;;4976681;28;20426;-92
2022/06/25 11:48:13;;;;;;;1.73;0.80;;;;;;;;;;4975452;28;20429;-91
2022/06/25 11:50:39;;;;;;;2.00;1.37;;;;;;;;;;4975117;28;20550;-90
2022/06/25 11:53:05;;;;;;;0.80;0.80;;;;;;;;;;4975253;28;20462;-91
2022/06/25 11:55:31;;;;;;;1.33;1.23;;;;;;;;;;4975107;28;20266;-93
2022/06/25 11:58:01;;;;;;;1.00;0.90;;;;;;;;;;4974719;28;20423;-91
2022/06/25 12:00:29;;;;;;;1.50;1.40;;;;;;;;;;4974743;28;20183;-91
2022/06/25 12:03:05;;;;;;;1.73;1.50;;;44.70;1.00;;;;;;4974796;28;20831;-91
2022/06/25 12:05:32;;;;;;;1.50;1.30;;;;;;;;;;4974430;28;20434;-91
2022/06/25 12:07:58;;;;;;;2.60;1.50;;;;;;;;;;4974405;28;20442;-91
2022/06/25 12:10:24;;;;;;;1.50;1.30;;;;;;;;;;4975428;28;20513;-91
2022/06/25 12:12:50;;;;;;;1.40;1.30;;;;;;;;;;4975598;28;20241;-93
2022/06/25 12:15:16;;;;;;;1.53;1.10;;;;;;;;;;4974666;28;20419;-93
2022/06/25 12:17:43;;;;;;;1.37;1.27;;;;;;;;;;4974456;28;20896;-91
2022/06/25 12:20:13;;;;;;;1.20;1.10;;;;;;;;;;4975694;28;20168;-90
2022/06/25 12:22:41;;;;;;;1.33;1.13;;;;;;;;;;4975117;28;20419;-91
2022/06/25 12:25:07;;;;;;;1.60;1.50;;;;;;;;;;4975240;28;20900;-92
2022/06/25 12:27:44;;;;;;;1.90;1.80;;;;;;;;;;4974871;28;20889;-91
2022/06/25 12:30:10;;;;;;;1.43;1.33;;;;;;;;;;4975312;28;20403;-92
2022/06/25 12:32:41;;;;;;;1.63;1.53;;;;;;;;;;4974694;28;20831;-91
2022/06/25 12:35:21;;;;;;;1.87;1.70;;;;;;;;;;4974869;28;20521;-90
2022/06/25 12:38:00;;;;;;;1.83;1.40;;;;;;;;;;4974899;28;20429;-90
2022/06/25 12:40:26;;;;;;;1.77;1.67;;;;;;;;;;4975020;28;20768;-91
2022/06/25 12:42:59;;;;;;;2.80;2.50;;;;;;;;;;4976967;28;20403;-91
2022/06/25 12:45:26;;;;;;;2.60;2.00;;;;;;;;;;4976972;28;20763;-91
2022/06/25 12:47:52;;;;;;;1.57;1.47;;;;;;;;;;4975462;28;20422;-90
2022/06/25 12:50:23;;;;;;;4.78;2.25;;;;;;;;;;4974155;28;20463;-90
2022/06/25 12:52:49;;;;;;;1.55;1.45;;;;;;;;;;4973315;28;20435;-88
2022/06/25 12:55:19;;;;;;;1.63;1.52;;;;;;;;;;4972233;28;20175;-89
2022/06/25 12:57:46;;;;;;;1.67;1.58;;;;;;;;;;4972320;28;21258;-89
2022/06/25 13:00:20;;;;;;;1.57;1.47;;;;;;;;;;4974175;28;20407;-89
2022/06/25 13:02:46;;;;;;;2.10;1.43;;;;;;;;;;4973862;28;20415;-89
2022/06/25 13:05:12;;;;;;;1.63;1.20;;;;;;;;;;4972609;28;20450;-88
2022/06/25 13:07:38;;;;;;;1.10;1.00;;;;;;;;;;4973924;28;20633;-88
2022/06/25 13:10:04;;;;;;;3.07;1.50;;;37.20;1.00;;;;;;4972820;28;20467;-89
2022/06/25 13:12:30;;;;;;;1.37;1.27;;;36.40;1.00;;;;;;4974109;28;20192;-91
2022/06/25 13:14:56;;;;;;;1.50;1.40;;;36.20;1.00;;;;;;4964633;28;20776;-90
2022/06/25 13:17:22;;;;;;;2.73;1.40;;;37.50;1.00;;;;;;4961447;28;20288;-89